Time;durP1;ratioP1;P1;durP2;ratioP2;P2;SDS_P1;SDS_P2;PMS_P1;PMS_P2;Temp;Humidity;BMP_temperature;BMP_pressure;BME280_temperature;BME280_humidity;BME280_pressure;Samples;Min_cycle;Max_cycle;Signal;HPM_P1;HPM_P2
2021/09/20 00:01:20;;;;;;;5.70;1.52;;;;;;;;;;5017713;28;20124;-41
2021/09/20 00:03:46;;;;;;;6.68;2.03;;;;;;;;;;5020222;28;20417;-41
2021/09/20 00:06:11;;;;;;;12.25;1.42;;;;;;;;;;5019574;28;20082;-39
2021/09/20 00:08:36;;;;;;;2.90;1.42;;;;;;;;;;5013436;28;20022;-40
2021/09/20 00:11:02;;;;;;;2.72;0.82;;;;;;;;;;5011682;28;20021;-40
2021/09/20 00:13:27;;;;;;;3.53;2.08;;;;;;;;;;5015476;28;20025;-41
2021/09/20 00:15:52;;;;;;;7.10;2.75;;;;;;;;;;5015091;28;20021;-39
2021/09/20 00:18:18;;;;;;;2.92;1.52;;;;;;;;;;5013857;28;20091;-39
2021/09/20 00:20:43;;;;;;;9.40;1.63;;;;;;;;;;5016927;28;20022;-39
2021/09/20 00:23:08;;;;;;;4.68;1.38;;;;;;;;;;5011431;28;20030;-39
2021/09/20 00:25:34;;;;;;;5.40;1.90;;;;;;;;;;5018728;28;20113;-40
2021/09/20 00:27:59;;;;;;;3.05;1.45;;;;;;;;;;5020407;28;20033;-40
2021/09/20 00:30:24;;;;;;;4.35;1.50;;;;;;;;;;5017353;28;20018;-42
2021/09/20 00:32:49;;;;;;;1.38;0.65;;;;;;;;;;5016496;28;20128;-39
2021/09/20 00:35:15;;;;;;;1.58;1.02;;;;;;;;;;5017361;28;20088;-41
2021/09/20 00:37:40;;;;;;;8.95;2.33;;;;;;;;;;5018020;28;20025;-39
2021/09/20 00:40:06;;;;;;;3.03;1.50;;;;;;;;;;5016005;28;20013;-39
2021/09/20 00:42:31;;;;;;;3.38;1.52;;;;;;;;;;5014602;28;20044;-40
2021/09/20 00:44:57;;;;;;;2.88;1.23;;;;;;;;;;5020834;28;20834;-40
2021/09/20 00:47:22;;;;;;;8.98;1.67;;;;;;;;;;5019715;28;20025;-40
2021/09/20 00:49:47;;;;;;;5.28;1.77;;;;;;;;;;5017173;28;20025;-39
2021/09/20 00:52:13;;;;;;;2.95;1.98;;;;;;;;;;5020152;28;20029;-42
2021/09/20 00:54:38;;;;;;;3.97;1.45;;;;;;;;;;5015108;28;20029;-43
2021/09/20 00:57:04;;;;;;;4.28;1.42;;;;;;;;;;5011613;28;20040;-41
2021/09/20 00:59:29;;;;;;;1.90;1.17;;;;;;;;;;5016740;28;20022;-41
2021/09/20 01:01:55;;;;;;;3.22;1.67;;;;;;;;;;5012710;28;20659;-41
2021/09/20 01:04:20;;;;;;;3.25;1.35;;;;;;;;;;5011658;28;20122;-43
2021/09/20 01:06:46;;;;;;;8.80;2.00;;;;;;;;;;5018744;28;20375;-41
2021/09/20 01:09:11;;;;;;;1.95;0.98;;;;;;;;;;5014922;28;20030;-43
2021/09/20 01:11:36;;;;;;;8.40;1.65;;;;;;;;;;5016332;28;20064;-40
2021/09/20 01:14:02;;;;;;;5.20;2.13;;;;;;;;;;5014020;28;20477;-39
2021/09/20 01:16:27;;;;;;;2.85;1.58;;;;;;;;;;5013249;28;20029;-39
2021/09/20 01:18:52;;;;;;;3.22;1.38;;;;;;;;;;5009398;28;20045;-40
2021/09/20 01:21:18;;;;;;;1.73;1.02;;;;;;;;;;5012956;28;20384;-41
2021/09/20 01:23:43;;;;;;;4.43;1.90;;;;;;;;;;5013369;28;20110;-41
2021/09/20 01:26:10;;;;;;;3.10;1.15;;;;;;;;;;5013246;28;20548;-42
2021/09/20 01:28:35;;;;;;;6.05;2.22;;;;;;;;;;5015403;28;20033;-40
2021/09/20 01:31:00;;;;;;;5.47;1.83;;;;;;;;;;5013115;28;20530;-40
2021/09/20 01:33:26;;;;;;;6.15;1.90;;;;;;;;;;5016732;28;20498;-40
2021/09/20 01:35:51;;;;;;;2.42;0.93;;;;;;;;;;5018146;28;20104;-41
2021/09/20 01:38:16;;;;;;;5.53;2.20;;;;;;;;;;5014086;28;20013;-40
2021/09/20 01:40:42;;;;;;;3.42;1.35;;;;;;;;;;5009495;28;20033;-39
2021/09/20 01:43:07;;;;;;;2.50;1.50;;;;;;;;;;5014766;28;20377;-39
2021/09/20 01:45:32;;;;;;;4.30;1.90;;;;;;;;;;5014628;28;20076;-40
2021/09/20 01:47:57;;;;;;;9.18;1.77;;;;;;;;;;5014427;28;20021;-40
2021/09/20 01:50:23;;;;;;;7.70;2.85;;;;;;;;;;5009899;28;20489;-39
2021/09/20 01:52:48;;;;;;;7.47;1.92;;;;;;;;;;5014414;28;20022;-40
2021/09/20 01:55:14;;;;;;;1.33;0.82;;;;;;;;;;5012942;28;20026;-39
2021/09/20 01:57:39;;;;;;;4.15;1.08;;;;;;;;;;5017804;28;20485;-42
2021/09/20 02:00:06;;;;;;;2.13;0.80;;;;;;;;;;5016221;28;20025;-39
2021/09/20 02:02:31;;;;;;;3.97;1.88;;;;;;;;;;5013040;28;20032;-40
2021/09/20 02:04:56;;;;;;;3.08;1.83;;;;;;;;;;5014181;28;20021;-40
2021/09/20 02:07:21;;;;;;;18.40;4.57;;;;;;;;;;5016309;28;20053;-39
2021/09/20 02:09:47;;;;;;;3.95;2.22;;;;;;;;;;5017389;28;20025;-40
2021/09/20 02:12:12;;;;;;;3.88;1.42;;;;;;;;;;5009881;28;20036;-40
2021/09/20 02:14:37;;;;;;;1.85;0.90;;;;;;;;;;5014048;28;20038;-39
2021/09/20 02:17:03;;;;;;;3.75;1.30;;;;;;;;;;5013262;28;20028;-40
2021/09/20 02:19:28;;;;;;;7.18;1.83;;;;;;;;;;5013421;28;20077;-41
2021/09/20 02:21:54;;;;;;;4.97;1.80;;;;;;;;;;5015244;28;20022;-39
2021/09/20 02:24:19;;;;;;;1.88;0.88;;;;;;;;;;5015544;28;20108;-39
2021/09/20 02:26:44;;;;;;;7.50;1.33;;;;;;;;;;5019078;28;20061;-39
2021/09/20 02:29:09;;;;;;;3.28;1.13;;;;;;;;;;5018220;28;20109;-39
2021/09/20 02:31:35;;;;;;;5.45;1.55;;;;;;;;;;5015138;28;20021;-41
2021/09/20 02:34:00;;;;;;;3.28;1.40;;;;;;;;;;5015097;28;20416;-40
2021/09/20 02:36:25;;;;;;;6.85;1.73;;;;;;;;;;5014407;28;20030;-40
2021/09/20 02:38:51;;;;;;;3.67;1.50;;;;;;;;;;5020760;28;20431;-39
2021/09/20 02:41:21;;;;;;;4.60;0.80;;;;;;;;;;5013549;28;20599;-39
2021/09/20 02:43:46;;;;;;;1.45;0.57;;;;;;;;;;5019075;28;20391;-39
2021/09/20 02:46:12;;;;;;;4.18;1.70;;;;;;;;;;5018574;28;20855;-40
2021/09/20 02:48:37;;;;;;;6.32;1.80;;;;;;;;;;5023989;28;20022;-40
2021/09/20 02:51:03;;;;;;;2.20;1.10;;;;;;;;;;5020411;28;20029;-40
2021/09/20 02:53:29;;;;;;;10.85;1.88;;;;;;;;;;5020537;28;20037;-40
2021/09/20 02:55:54;;;;;;;2.47;1.00;;;;;;;;;;5011724;28;20272;-40
2021/09/20 02:58:19;;;;;;;3.63;1.98;;;;;;;;;;5012589;28;20440;-40
2021/09/20 03:00:45;;;;;;;2.72;1.58;;;;;;;;;;5015981;28;20112;-40
2021/09/20 03:03:10;;;;;;;4.57;2.35;;;;;;;;;;5014414;28;20026;-40
2021/09/20 03:05:36;;;;;;;3.40;1.38;;;;;;;;;;5018149;28;20528;-40
2021/09/20 03:08:01;;;;;;;5.88;1.85;;;;;;;;;;5022691;28;20107;-40
2021/09/20 03:10:27;;;;;;;6.50;1.58;;;;;;;;;;5020773;28;20884;-39
2021/09/20 03:12:52;;;;;;;2.95;1.92;;;;;;;;;;5020883;28;20590;-39
2021/09/20 03:15:18;;;;;;;2.03;1.00;;;;;;;;;;5017130;28;20057;-40
2021/09/20 03:17:43;;;;;;;2.22;1.42;;;;;;;;;;5020179;28;20962;-39
2021/09/20 03:20:09;;;;;;;3.40;1.27;;;;;;;;;;5011258;28;20022;-41
2021/09/20 03:22:35;;;;;;;7.80;2.03;;;;;;;;;;5012675;28;20033;-39
2021/09/20 03:25:00;;;;;;;10.27;1.52;;;;;;;;;;5013226;28;20022;-39
2021/09/20 03:27:25;;;;;;;3.42;1.27;;;;;;;;;;5014647;28;20572;-39
2021/09/20 03:29:50;;;;;;;10.48;7.35;;;;;;;;;;5020591;28;20552;-40
2021/09/20 03:32:16;;;;;;;4.20;3.63;;;;;;;;;;5022337;28;20444;-40
2021/09/20 03:34:41;;;;;;;1.50;0.75;;;;;;;;;;5014784;28;20018;-40
2021/09/20 03:37:07;;;;;;;2.08;0.98;;;;;;;;;;5015322;28;20029;-40
2021/09/20 03:39:32;;;;;;;6.68;1.80;;;;;;;;;;5016059;28;20112;-40
2021/09/20 03:41:57;;;;;;;3.63;1.40;;;;;;;;;;5014816;28;20026;-40
2021/09/20 03:44:23;;;;;;;4.00;2.65;;;;;;;;;;5015627;28;20107;-40
2021/09/20 03:46:48;;;;;;;3.90;2.30;;;;;;;;;;5017202;28;20478;-39
2021/09/20 03:49:14;;;;;;;4.00;1.88;;;;;;;;;;5016463;28;20055;-41
2021/09/20 03:51:39;;;;;;;12.27;2.35;;;;;;;;;;5017908;28;20037;-40
2021/09/20 03:54:05;;;;;;;1.50;0.98;;;;;;;;;;5018650;28;20041;-40
2021/09/20 03:56:30;;;;;;;3.38;1.40;;;;;;;;;;5013824;28;20034;-40
2021/09/20 03:58:55;;;;;;;3.65;1.95;;;;;;;;;;5016027;28;20036;-39
2021/09/20 04:01:21;;;;;;;2.20;1.17;;;;;;;;;;5013337;28;20732;-39
2021/09/20 04:03:46;;;;;;;4.88;2.15;;;;;;;;;;5017529;28;20108;-39
2021/09/20 04:06:11;;;;;;;7.57;3.20;;;;;;;;;;5012856;28;20573;-39
2021/09/20 04:08:36;;;;;;;2.13;1.17;;;;;;;;;;5012474;28;20022;-39
2021/09/20 04:11:02;;;;;;;5.22;1.17;;;;;;;;;;5015213;28;20030;-39
2021/09/20 04:13:27;;;;;;;10.80;1.55;;;;;;;;;;5016907;28;20366;-40
2021/09/20 04:15:55;;;;;;;2.08;1.33;;;;;;;;;;5017247;28;20057;-42
2021/09/20 04:18:25;;;;;;;3.55;2.22;;;;;;;;;;5021555;28;20109;-39
2021/09/20 04:20:51;;;;;;;1.80;0.90;;;;;;;;;;5016707;28;20720;-40
2021/09/20 04:23:18;;;;;;;3.47;1.60;;;;;;;;;;5016046;28;20037;-39
2021/09/20 04:25:43;;;;;;;11.93;2.08;;;;;;;;;;5012083;28;20563;-42
2021/09/20 04:28:08;;;;;;;12.57;2.10;;;;;;;;;;5014439;28;20022;-40
2021/09/20 04:30:33;;;;;;;6.28;3.25;;;;;;;;;;5019415;28;20049;-40
2021/09/20 04:32:59;;;;;;;4.25;1.67;;;;;;;;;;5005842;28;20837;-40
2021/09/20 04:35:24;;;;;;;4.13;2.33;;;;;;;;;;5021227;28;20049;-40
2021/09/20 04:37:49;;;;;;;8.48;1.80;;;;;;;;;;5023423;28;20025;-40
2021/09/20 04:40:15;;;;;;;3.83;1.75;;;;;;;;;;5019672;28;20644;-38
2021/09/20 04:42:40;;;;;;;1.65;1.05;;;;;;;;;;5015756;28;20513;-39
2021/09/20 04:45:06;;;;;;;6.97;2.22;;;;;;;;;;5018988;28;20022;-39
2021/09/20 04:47:31;;;;;;;3.97;1.35;;;;;;;;;;5011785;28;20026;-39
2021/09/20 04:49:56;;;;;;;6.70;2.78;;;;;;;;;;5012983;28;20025;-38
2021/09/20 04:52:22;;;;;;;3.22;0.95;;;;;;;;;;5017306;28;20049;-40
2021/09/20 04:54:47;;;;;;;4.68;1.83;;;;;;;;;;5017024;28;20545;-38
2021/09/20 04:57:12;;;;;;;4.88;0.68;;;;;;;;;;5014521;28;20446;-41
2021/09/20 04:59:37;;;;;;;7.05;2.47;;;;;;;;;;5011404;28;20028;-39
2021/09/20 05:02:03;;;;;;;2.78;1.25;;;;;;;;;;5006581;28;20029;-39
2021/09/20 05:04:28;;;;;;;10.63;3.08;;;;;;;;;;5017177;28;20499;-38
2021/09/20 05:06:53;;;;;;;3.75;1.85;;;;;;;;;;5018864;28;20053;-40
2021/09/20 05:09:19;;;;;;;3.08;1.33;;;;;;;;;;5018660;28;20056;-38
2021/09/20 05:11:44;;;;;;;2.72;1.48;;;;;;;;;;5017806;28;20022;-40
2021/09/20 05:14:09;;;;;;;7.03;2.35;;;;;;;;;;5015103;28;20025;-38
2021/09/20 05:16:34;;;;;;;3.20;1.17;;;;;;;;;;5018030;28;20485;-39
2021/09/20 05:19:00;;;;;;;3.08;2.38;;;;;;;;;;5016461;28;20214;-38
2021/09/20 05:21:25;;;;;;;10.75;1.88;;;;;;;;;;5015997;28;20048;-39
2021/09/20 05:23:51;;;;;;;2.95;1.58;;;;;;;;;;5015195;28;20026;-38
2021/09/20 05:26:17;;;;;;;3.05;1.15;;;;;;;;;;5015316;28;20568;-39
2021/09/20 05:28:43;;;;;;;5.43;2.30;;;;;;;;;;5013214;28;20064;-39
2021/09/20 05:31:08;;;;;;;2.78;2.00;;;;;;;;;;5014496;28;20021;-39
2021/09/20 05:33:34;;;;;;;3.47;2.15;;;;;;;;;;5016476;28;20040;-39
2021/09/20 05:36:00;;;;;;;2.33;1.25;;;;;;;;;;5015485;28;20041;-38
2021/09/20 05:38:26;;;;;;;4.35;1.73;;;;;;;;;;5011036;28;20026;-39
2021/09/20 05:40:51;;;;;;;4.22;2.55;;;;;;;;;;5009351;28;20029;-41
2021/09/20 05:43:16;;;;;;;3.33;1.88;;;;;;;;;;5014843;28;20025;-39
2021/09/20 05:45:42;;;;;;;2.42;1.65;;;;;;;;;;5014290;28;20021;-39
2021/09/20 05:48:07;;;;;;;7.55;2.13;;;;;;;;;;5010408;28;20029;-38
2021/09/20 05:50:33;;;;;;;6.55;1.80;;;;;;;;;;5017481;28;20022;-38
2021/09/20 05:52:58;;;;;;;3.13;2.20;;;;;;;;;;5012887;28;20493;-38
2021/09/20 05:55:23;;;;;;;17.38;3.65;;;;;;;;;;5013964;28;20026;-38
2021/09/20 05:57:49;;;;;;;3.13;1.20;;;;;;;;;;5017368;28;20057;-38
2021/09/20 06:00:14;;;;;;;4.28;1.70;;;;;;;;;;5014474;28;20025;-38
2021/09/20 06:02:40;;;;;;;7.90;2.05;;;;;;;;;;5011693;28;20040;-38
2021/09/20 06:05:06;;;;;;;5.63;1.75;;;;;;;;;;5011353;28;20025;-38
2021/09/20 06:07:31;;;;;;;4.50;2.55;;;;;;;;;;5014892;28;20116;-38
2021/09/20 06:09:57;;;;;;;2.95;1.33;;;;;;;;;;5019972;28;20112;-38
2021/09/20 06:12:22;;;;;;;1.73;0.93;;;;;;;;;;5014223;28;20477;-38
2021/09/20 06:14:47;;;;;;;4.70;1.27;;;;;;;;;;5010700;28;20112;-37
2021/09/20 06:17:13;;;;;;;17.27;2.30;;;;;;;;;;5015897;28;20026;-38
2021/09/20 06:19:38;;;;;;;6.30;1.38;;;;;;;;;;5014359;28;20116;-38
2021/09/20 06:22:03;;;;;;;2.70;1.23;;;;;;;;;;5012833;28;20106;-38
2021/09/20 06:24:29;;;;;;;9.35;2.47;;;;;;;;;;5015923;28;20026;-63
2021/09/20 06:26:54;;;;;;;10.40;2.13;;;;;;;;;;5015274;28;20054;-63
2021/09/20 06:29:19;;;;;;;8.00;1.73;;;;;;;;;;5014469;28;20029;-63
2021/09/20 06:31:45;;;;;;;4.13;1.75;;;;;;;;;;5014392;28;20053;-66
2021/09/20 06:34:10;;;;;;;7.45;1.77;;;;;;;;;;5015975;28;20028;-72
2021/09/20 06:36:35;;;;;;;2.75;1.70;;;;;;;;;;5014879;28;20025;-70
2021/09/20 06:39:01;;;;;;;5.10;2.42;;;;;;;;;;5014472;28;20048;-72
2021/09/20 06:41:27;;;;;;;5.15;3.85;;;;;;;;;;5010654;28;20022;-69
2021/09/20 06:43:52;;;;;;;7.03;2.22;;;;;;;;;;5015826;28;20543;-68
2021/09/20 06:46:17;;;;;;;2.63;1.85;;;;;;;;;;5016824;28;20568;-70
2021/09/20 06:48:43;;;;;;;12.80;2.42;;;;;;;;;;5014015;28;20557;-71
2021/09/20 06:51:08;;;;;;;5.00;3.63;;;;;;;;;;5011847;28;20103;-70
2021/09/20 06:53:34;;;;;;;5.15;2.50;;;;;;;;;;5011738;28;20497;-70
2021/09/20 06:55:59;;;;;;;9.10;2.55;;;;;;;;;;5012367;28;20160;-71
2021/09/20 06:58:24;;;;;;;6.90;2.55;;;;;;;;;;5007948;28;20025;-72
2021/09/20 07:00:50;;;;;;;2.63;1.48;;;;;;;;;;5013003;28;20638;-72
2021/09/20 07:03:15;;;;;;;6.45;3.72;;;;;;;;;;5015085;28;20019;-72
2021/09/20 07:05:41;;;;;;;27.38;9.30;;;;;;;;;;5012407;28;20053;-72
2021/09/20 07:08:06;;;;;;;44.70;19.50;;;;;;;;;;5015985;28;20504;-72
2021/09/20 07:10:32;;;;;;;14.40;8.75;;;;;;;;;;5008271;28;20025;-71
2021/09/20 07:12:57;;;;;;;16.15;7.90;;;;;;;;;;5009122;28;20561;-72
2021/09/20 07:15:22;;;;;;;36.13;11.85;;;;;;;;;;5011645;28;20152;-73
2021/09/20 07:17:48;;;;;;;49.75;31.10;;;;;;;;;;5014107;28;20037;-71
2021/09/20 07:20:14;;;;;;;110.18;71.25;;;;;;;;;;5010374;28;20025;-71
2021/09/20 07:22:40;;;;;;;78.93;58.92;;;;;;;;;;5014696;28;20029;-75
2021/09/20 07:25:05;;;;;;;106.90;75.35;;;;;;;;;;5018145;28;20032;-58
2021/09/20 07:27:31;;;;;;;132.88;97.03;;;;;;;;;;5010998;28;20033;-58
2021/09/20 07:29:57;;;;;;;111.82;76.78;;;;;;;;;;5019923;28;20531;-60
2021/09/20 07:32:22;;;;;;;86.47;68.13;;;;;;;;;;5014847;28;20789;-60
2021/09/20 07:34:47;;;;;;;75.57;57.45;;;;;;;;;;5015807;28;20075;-57
2021/09/20 07:37:14;;;;;;;60.65;46.30;;;;;;;;;;5017725;28;20021;-59
2021/09/20 07:39:40;;;;;;;51.03;37.08;;;;;;;;;;5016941;28;20053;-60
2021/09/20 07:42:06;;;;;;;53.40;27.83;;;;;;;;;;5015579;28;20598;-60
2021/09/20 07:44:32;;;;;;;85.03;58.05;;;;;;;;;;5019677;28;20030;-62
2021/09/20 07:46:57;;;;;;;63.38;40.03;;;;;;;;;;5021179;28;20613;-59
2021/09/20 07:49:22;;;;;;;59.63;30.70;;;;;;;;;;5016214;28;20035;-58
2021/09/20 07:51:48;;;;;;;28.40;18.65;;;;;;;;;;5015567;28;20025;-59
2021/09/20 07:54:13;;;;;;;22.55;15.88;;;;;;;;;;5016387;28;20689;-64
2021/09/20 07:56:38;;;;;;;25.95;16.05;;;;;;;;;;5019197;28;20025;-63
2021/09/20 07:59:04;;;;;;;32.75;17.08;;;;;;;;;;5017290;28;20049;-64
2021/09/20 08:01:29;;;;;;;30.83;20.45;;;;;;;;;;5011829;28;20033;-64
2021/09/20 08:03:55;;;;;;;33.72;22.60;;;;;;;;;;5018042;28;20131;-64
2021/09/20 08:06:21;;;;;;;42.03;26.20;;;;;;;;;;5017922;28;20066;-63
2021/09/20 08:08:46;;;;;;;33.92;23.60;;;;;;;;;;5015979;28;20025;-63
2021/09/20 08:11:12;;;;;;;36.58;19.48;;;;;;;;;;5012763;28;20821;-63
2021/09/20 08:13:37;;;;;;;21.25;12.43;;;;;;;;;;5014306;28;20200;-63
2021/09/20 08:16:03;;;;;;;20.95;14.52;;;;;;;;;;5019391;28;20600;-62
2021/09/20 08:18:28;;;;;;;22.88;16.58;;;;;;;;;;5017168;28;20512;-63
2021/09/20 08:20:53;;;;;;;15.93;14.00;;;;;;;;;;5016001;28;20040;-63
2021/09/20 08:23:19;;;;;;;18.13;13.40;;;;;;;;;;5010484;28;20056;-63
2021/09/20 08:25:44;;;;;;;13.68;6.57;;;;;;;;;;5013408;28;20021;-61
2021/09/20 08:28:10;;;;;;;17.35;6.18;;;;;;;;;;5013611;28;20167;-63
2021/09/20 08:30:36;;;;;;;16.05;6.80;;;;;;;;;;5011675;28;20497;-62
2021/09/20 08:33:01;;;;;;;7.05;1.95;;;;;;;;;;5017398;28;20041;-63
2021/09/20 08:35:26;;;;;;;4.07;1.48;;;;;;;;;;5015373;28;20021;-62
2021/09/20 08:37:52;;;;;;;1.98;1.20;;;;;;;;;;5018606;28;20022;-62
2021/09/20 08:40:18;;;;;;;4.72;2.65;;;;;;;;;;5014286;28;20029;-62
2021/09/20 08:42:43;;;;;;;1.77;0.77;;;;;;;;;;5019587;28;20612;-62
2021/09/20 08:45:11;;;;;;;4.65;1.40;;;;;;;;;;5013331;28;20106;-62
2021/09/20 08:47:39;;;;;;;4.00;1.15;;;;;;;;;;5010651;28;20033;-62
2021/09/20 08:50:04;;;;;;;5.38;1.65;;;;;;;;;;5012322;28;20053;-62
2021/09/20 08:52:30;;;;;;;5.38;1.45;;;;;;;;;;5015306;28;20058;-62
2021/09/20 08:54:55;;;;;;;2.95;1.45;;;;;;;;;;5015982;28;20518;-62
2021/09/20 08:57:21;;;;;;;1.85;1.17;;;;;;;;;;5016268;28;20085;-62
2021/09/20 08:59:47;;;;;;;4.38;1.33;;;;;;;;;;5017262;28;20041;-63
2021/09/20 09:02:16;;;;;;;5.32;2.15;;;;;;;;;;5013230;28;20017;-63
2021/09/20 09:04:43;;;;;;;6.82;3.13;;;;;;;;;;5014241;28;20022;-62
2021/09/20 09:07:14;;;;;;;3.20;1.45;;;;;;;;;;5012947;28;20429;-63
2021/09/20 09:09:41;;;;;;;6.25;1.77;;;;;;;;;;5013399;28;20034;-63
2021/09/20 09:12:14;;;;;;;4.13;1.65;;;;;;;;;;5014091;28;20025;-63
2021/09/20 09:14:40;;;;;;;5.68;1.50;;;;;;;;;;5015345;28;20037;-64
2021/09/20 09:17:14;;;;;;;3.20;1.02;;;;;;;;;;5011309;28;20033;-63
2021/09/20 09:19:43;;;;;;;2.70;0.70;;;;;;;;;;5012794;28;20091;-63
2021/09/20 09:22:08;;;;;;;1.92;0.77;;;;;;;;;;5017012;28;20119;-63
2021/09/20 09:24:33;;;;;;;6.38;1.60;;;;;;;;;;5015700;28;20159;-63
2021/09/20 09:26:59;;;;;;;4.10;0.77;;;;;;;;;;5016351;28;20719;-63
2021/09/20 09:29:27;;;;;;;4.53;1.20;;;;;;;;;;5021251;28;20024;-63
2021/09/20 09:31:54;;;;;;;2.00;1.02;;;;;;;;;;5011013;28;20087;-62
2021/09/20 09:34:23;;;;;;;4.93;0.85;;;;;;;;;;5011686;28;20025;-63
2021/09/20 09:36:49;;;;;;;1.92;0.68;;;;;;;;;;5014571;28;20179;-62
2021/09/20 09:39:25;;;;;;;5.60;0.90;;;;;;;;;;5008518;28;20788;-62
2021/09/20 09:41:50;;;;;;;0.95;0.60;;;;;;;;;;5016915;28;20529;-61
2021/09/20 09:44:15;;;;;;;3.17;1.67;;;;;;;;;;5017931;28;20026;-62
2021/09/20 09:46:42;;;;;;;2.28;1.00;;;;;;;;;;5014321;28;20026;-63
2021/09/20 09:49:12;;;;;;;1.58;0.65;;;;;;;;;;5014492;28;20034;-63
2021/09/20 09:51:52;;;;;;;4.90;1.93;;;;;;;;;;5010775;28;20038;-62
2021/09/20 09:54:17;;;;;;;2.75;0.98;;;;;;;;;;5016753;28;20026;-62
2021/09/20 09:56:42;;;;;;;1.73;1.08;;;;;;;;;;5014218;28;20041;-62
2021/09/20 09:59:08;;;;;;;19.38;1.23;;;;;;;;;;5013576;28;20025;-63
2021/09/20 10:01:40;;;;;;;2.35;0.73;;;;;;;;;;5009025;28;20471;-63
2021/09/20 10:04:20;;;;;;;4.20;1.25;;;;;;;;;;5012855;28;20026;-64
2021/09/20 10:06:47;;;;;;;5.07;1.45;;;;;;;;;;5017542;28;20058;-63
2021/09/20 10:09:17;;;;;;;3.53;0.60;;;;;;;;;;5012753;28;20069;-63
2021/09/20 10:11:44;;;;;;;7.83;0.40;;;;;;;;;;5012461;28;20030;-63
2021/09/20 10:14:10;;;;;;;9.90;3.80;;;;;;;;;;5014706;28;20266;-63
2021/09/20 10:16:36;;;;;;;5.18;0.82;;;;;;;;;;5010856;28;20052;-63
2021/09/20 10:19:01;;;;;;;4.65;0.90;;;;;;;;;;5013332;28;20026;-63
2021/09/20 10:21:27;;;;;;;1.23;0.70;;;;;;;;;;5007621;28;20495;-63
2021/09/20 10:23:53;;;;;;;0.93;0.50;;;;;;;;;;5009181;28;20095;-61
2021/09/20 10:26:19;;;;;;;0.90;0.28;;;;;;;;;;5010793;28;20383;-62
2021/09/20 10:28:46;;;;;;;1.13;0.52;;;;;;;;;;5011516;28;20026;-62
2021/09/20 10:31:12;;;;;;;2.25;0.60;;;;;;;;;;5013121;28;20338;-62
2021/09/20 10:33:37;;;;;;;1.58;1.10;;;;;;;;;;5011837;28;20561;-64
2021/09/20 10:36:03;;;;;;;47.17;7.78;;;;;;;;;;5009339;28;20532;-62
2021/09/20 10:38:29;;;;;;;27.42;4.88;;;;;;;;;;5011211;28;20112;-62
2021/09/20 10:41:07;;;;;;;2.30;1.15;;;;;;;;;;5008590;28;20646;-67
2021/09/20 10:43:33;;;;;;;10.13;4.45;;;;;;;;;;5010336;28;20106;-66
2021/09/20 10:45:58;;;;;;;1.48;0.60;;;;;;;;;;5013166;28;20026;-66
2021/09/20 10:48:30;;;;;;;2.35;0.60;;;;;;;;;;5013908;28;20025;-62
2021/09/20 10:50:58;;;;;;;6.20;0.45;;;;;;;;;;5002346;28;20108;-62
2021/09/20 10:53:34;;;;;;;1.88;0.85;;;;;;;;;;5010736;28;20022;-62
2021/09/20 10:56:02;;;;;;;0.60;0.40;;;;;;;;;;5007490;28;20032;-62
2021/09/20 10:58:38;;;;;;;1.77;0.93;;;;;;;;;;5011378;28;20057;-62
2021/09/20 11:01:10;;;;;;;8.63;0.85;;;;;;;;;;5017434;28;20064;-62
2021/09/20 11:03:42;;;;;;;2.63;0.90;;;;;;;;;;5017301;28;20034;-63
2021/09/20 11:06:22;;;;;;;2.67;0.82;;;;;;;;;;5011985;28;20046;-63
2021/09/20 11:09:08;;;;;;;5.05;1.20;;;;;;;;;;5016649;28;20113;-63
2021/09/20 11:11:37;;;;;;;3.20;1.17;;;;;;;;;;4996127;28;20030;-63
2021/09/20 11:14:07;;;;;;;2.55;0.73;;;;;;;;;;5009640;28;20084;-64
2021/09/20 11:16:49;;;;;;;13.70;1.77;;;;;;;;;;5017621;28;20034;-63
2021/09/20 11:19:31;;;;;;;2.50;0.70;;;;;;;;;;5018332;28;20100;-63
2021/09/20 11:22:02;;;;;;;4.05;0.52;;;;;;;;;;5013823;28;20026;-63
2021/09/20 11:24:46;;;;;;;1.88;0.88;;;;;;;;;;5020587;28;20024;-62
2021/09/20 11:27:16;;;;;;;6.43;1.00;;;;;;;;;;5016263;28;20433;-62
2021/09/20 11:29:44;;;;;;;1.10;0.93;;;;;;;;;;5016999;28;20103;-61
2021/09/20 11:32:09;;;;;;;2.42;0.65;;;;;;;;;;5018342;28;20112;-63
2021/09/20 11:34:36;;;;;;;0.73;0.43;;;;;;;;;;5011986;28;20780;-63
2021/09/20 11:37:08;;;;;;;2.15;0.68;;;;;;;;;;5012882;28;20030;-64
2021/09/20 11:39:44;;;;;;;3.85;0.80;;;;;;;;;;5015107;28;20033;-62
2021/09/20 11:42:09;;;;;;;2.63;0.70;;;;;;;;;;5010367;28;20026;-61
2021/09/20 11:44:34;;;;;;;3.88;0.68;;;;;;;;;;5011119;28;20024;-62
2021/09/20 11:46:59;;;;;;;1.17;0.52;;;;;;;;;;5018717;28;20051;-62
2021/09/20 11:49:26;;;;;;;1.45;0.45;;;;;;;;;;5015386;28;20032;-62
2021/09/20 11:51:51;;;;;;;2.22;1.08;;;;;;;;;;5014922;28;20624;-62
2021/09/20 11:54:27;;;;;;;1.35;0.32;;;;;;;;;;5018642;28;20030;-61
2021/09/20 11:56:52;;;;;;;2.03;0.73;;;;;;;;;;5011308;28;20103;-61
2021/09/20 11:59:19;;;;;;;2.13;1.33;;;;;;;;;;5016346;28;20510;-61
2021/09/20 12:01:45;;;;;;;1.77;0.82;;;;;;;;;;5010897;28;20029;-61
2021/09/20 12:04:10;;;;;;;5.95;1.40;;;;;;;;;;5011338;28;20034;-61
2021/09/20 12:06:35;;;;;;;1.92;1.15;;;;;;;;;;5019018;28;20057;-61
2021/09/20 12:09:03;;;;;;;9.45;1.30;;;;;;;;;;5016387;28;20056;-62
2021/09/20 12:11:29;;;;;;;4.53;3.72;;;;;;;;;;5016053;28;20036;-63
2021/09/20 12:13:55;;;;;;;5.35;3.95;;;;;;;;;;5015914;28;20025;-48
2021/09/20 12:16:20;;;;;;;12.27;10.95;;;;;;;;;;5008707;28;20034;-64
2021/09/20 12:18:45;;;;;;;4.30;2.78;;;;;;;;;;5012719;28;20101;-65
2021/09/20 12:21:12;;;;;;;6.00;4.57;;;;;;;;;;5013596;28;20018;-67
2021/09/20 12:23:43;;;;;;;19.10;15.05;;;;;;;;;;5015815;28;20052;-55
2021/09/20 12:26:13;;;;;;;13.90;6.88;;;;;;;;;;5016088;28;20033;-48
2021/09/20 12:28:41;;;;;;;18.37;4.50;;;;;;;;;;5020463;28;20461;-46
2021/09/20 12:31:11;;;;;;;8.27;5.07;;;;;;;;;;5019238;28;20025;-46
2021/09/20 12:33:52;;;;;;;1.73;1.40;;;;;;;;;;5013973;28;20026;-45
2021/09/20 12:36:18;;;;;;;10.43;3.17;;;;;;;;;;5017942;28;20026;-47
2021/09/20 12:38:43;;;;;;;9.55;2.75;;;;;;;;;;5019075;28;20400;-45
2021/09/20 12:41:11;;;;;;;4.75;3.33;;;;;;;;;;5018525;28;20497;-47
2021/09/20 12:43:36;;;;;;;6.13;2.17;;;;;;;;;;5012601;28;20044;-44
2021/09/20 12:46:09;;;;;;;2.55;1.10;;;;;;;;;;5012442;28;20022;-47
2021/09/20 12:48:35;;;;;;;8.38;3.30;;;;;;;;;;5021249;28;20505;-49
2021/09/20 12:51:02;;;;;;;3.45;1.30;;;;;;;;;;5020672;28;20022;-47
2021/09/20 12:53:48;;;;;;;14.35;5.55;;;;;;;;;;5017776;28;20018;-45
2021/09/20 12:56:15;;;;;;;6.97;4.63;;;;;;;;;;5017124;28;20029;-57
2021/09/20 12:58:46;;;;;;;2.03;1.33;;;;;;;;;;5016240;28;20075;-58
2021/09/20 13:01:20;;;;;;;6.15;2.50;;;;;;;;;;5017148;28;20397;-58
2021/09/20 13:03:45;;;;;;;6.32;2.55;;;;;;;;;;5014613;28;20029;-52
2021/09/20 13:06:12;;;;;;;1.42;1.05;;;;;;;;;;5019211;28;20049;-58
2021/09/20 13:08:39;;;;;;;3.80;1.73;;;;;;;;;;5018355;28;20375;-56
2021/09/20 13:11:15;;;;;;;7.80;3.13;;;;;;;;;;5014385;28;20021;-59
2021/09/20 13:13:42;;;;;;;2.85;1.77;;;;;;;;;;5020853;28;20037;-61
2021/09/20 13:16:09;;;;;;;8.75;1.10;;;;;;;;;;5018406;28;20026;-60
2021/09/20 13:18:34;;;;;;;14.90;1.50;;;;;;;;;;5013905;28;20104;-69
2021/09/20 13:21:13;;;;;;;2.40;2.20;;;;;;;;;;5013909;28;20629;-60
2021/09/20 13:23:39;;;;;;;1.85;1.10;;;;;;;;;;5017745;28;20022;-63
2021/09/20 13:26:04;;;;;;;3.15;1.75;;;;;;;;;;5021623;28;20074;-59
2021/09/20 13:28:43;;;;;;;8.90;1.38;;;;;;;;;;5021809;28;20044;-64
2021/09/20 13:31:10;;;;;;;3.70;0.73;;;;;;;;;;5021208;28;20021;-63
2021/09/20 13:33:35;;;;;;;2.97;2.03;;;;;;;;;;5016060;28;20032;-61
2021/09/20 13:36:02;;;;;;;1.17;0.75;;;;;;;;;;5013540;28;20026;-61
2021/09/20 13:38:28;;;;;;;4.25;1.60;;;;;;;;;;5013827;28;20024;-60
2021/09/20 13:40:56;;;;;;;3.40;1.83;;;;;;;;;;5012898;28;20335;-70
2021/09/20 13:43:22;;;;;;;2.15;1.02;;;;;;;;;;5013320;28;20435;-52
2021/09/20 13:45:48;;;;;;;1.63;0.80;;;;;;;;;;5021651;28;20470;-61
2021/09/20 13:48:17;;;;;;;3.08;2.15;;;;;;;;;;5018065;28;20040;-57
2021/09/20 13:50:43;;;;;;;7.18;2.10;;;;;;;;;;5023387;28;20104;-58
2021/09/20 13:53:08;;;;;;;2.20;1.33;;;;;;;;;;5017339;28;20076;-58
2021/09/20 13:55:37;;;;;;;1.85;0.80;;;;;;;;;;5015030;28;20021;-59
2021/09/20 13:58:03;;;;;;;6.13;1.25;;;;;;;;;;5016086;28;20021;-47
2021/09/20 14:00:28;;;;;;;8.07;2.10;;;;;;;;;;5013810;28;20028;-45
2021/09/20 14:02:53;;;;;;;5.38;2.40;;;;;;;;;;5017840;28;20436;-59
2021/09/20 14:05:19;;;;;;;1.48;1.27;;;;;;;;;;5014964;28;20444;-51
2021/09/20 14:07:44;;;;;;;11.85;5.55;;;;;;;;;;5015475;28;20067;-44
2021/09/20 14:10:13;;;;;;;4.88;2.22;;;;;;;;;;5014178;28;20104;-50
2021/09/20 14:12:38;;;;;;;2.35;1.88;;;;;;;;;;5016457;28;20048;-54
2021/09/20 14:15:04;;;;;;;4.15;3.63;;;;;;;;;;5010655;28;20026;-52
2021/09/20 14:17:29;;;;;;;1.83;1.20;;;;;;;;;;5014798;28;20040;-56
2021/09/20 14:19:54;;;;;;;10.73;2.83;;;;;;;;;;5018346;28;20076;-46
2021/09/20 14:22:21;;;;;;;1.05;0.70;;;;;;;;;;5012475;28;20110;-58
2021/09/20 14:24:47;;;;;;;3.60;2.33;;;;;;;;;;5009455;28;20022;-47
2021/09/20 14:27:12;;;;;;;6.53;2.33;;;;;;;;;;5011039;28;20030;-45
2021/09/20 14:29:38;;;;;;;1.60;0.90;;;;;;;;;;5014812;28;20025;-50
2021/09/20 14:32:04;;;;;;;9.55;3.05;;;;;;;;;;5018185;28;20025;-54
2021/09/20 14:34:29;;;;;;;2.75;1.83;;;;;;;;;;5008461;28;20026;-50